Evelyn Maersk — OXHV2 — position and weather

sailwx.info

Track history (hours):
 
Tides and Currents Weather Stations Pressure Air Temp Water Temp Dewpoint Dewpoint Depression Visibility Wind Speed Wind Dir Waves Ship Positions

Evelyn Maersk

Last reported at 2016-Jul-26 19:27 UTC. Time now 2016-Jul-26 19:54 UTC.
Position N 50°54' W 001°27'.

Length 398 m; draft 14.3 m.

Type: Ship (hazmat cat A). MMSI: 220496000.

Date/timePositionNaut miles runAvg speedWind from/ knotsBaromVisibWave heightAir tempDewpointWater temp
2016-Jul-26 19:27N 50°54' W 001°27'0 0.0
2016-Jul-26 18:33N 50°54' W 001°27'1 1.5
2016-Jul-26 17:33N 50°54' W 001°25'7 7.3
2016-Jul-26 16:34N 50°47' W 001°19'1211.6
2016-Jul-26 15:33N 50°43' W 001°02'9 8.9
2016-Jul-26 14:33N 50°35' W 000°59'7 7.1
2016-Jul-26 13:34N 50°30' W 001°06'11 8.2
2016-Jul-26 12:12N 50°22' W 001°19'31 8.4
2016-Jul-26 08:31N 50°01' W 001°54'7 6.3
2016-Jul-26 07:27N 49°59' W 002°04'6 5.4
2016-Jul-26 06:19N 49°57' W 002°14'15 7.3
2016-Jul-26 04:16N 49°53' W 002°36'7 9.6
2016-Jul-26 03:33N 49°51' W 002°46'1110.4
2016-Jul-26 02:31N 49°46' W 003°01'1010.8
2016-Jul-26 01:33N 49°41' W 003°14'1111.0
2016-Jul-26 00:32N 49°36' W 003°30'2411.5
2016-Jul-25 22:24N 49°24' W 004°03'1011.6
2016-Jul-25 21:31N 49°18' W 004°15'1212.2
2016-Jul-25 20:30N 49°11' W 004°32'1212.3
2016-Jul-25 19:33N 49°05' W 004°47'1312.1
2016-Jul-25 18:30N 48°59' W 005°04'1111.9
2016-Jul-25 17:33N 48°53' W 005°19'1111.3
2016-Jul-25 16:33N 48°47' W 005°33'1110.5
2016-Jul-25 15:32N 48°39' W 005°44'59718.7
2016-Jul-24 07:33N 39°08' W 009°49'2120.8
2016-Jul-24 06:33N 38°48' W 009°50'2121.2
2016-Jul-24 05:33N 38°27' W 009°45'2121.3
2016-Jul-24 04:33N 38°06' W 009°40'2221.7
2016-Jul-24 03:33N 37°44' W 009°33'2121.4
2016-Jul-24 02:33N 37°24' W 009°28'2121.0
2016-Jul-24 01:33N 37°03' W 009°22'2121.0
2016-Jul-24 00:33N 36°44' W 009°11'2221.6
2016-Jul-23 23:33N 36°37' W 008°46'2222.1
2016-Jul-23 22:33N 36°31' W 008°19'2222.0
2016-Jul-23 21:33N 36°24' W 007°53'2121.5
2016-Jul-23 20:33N 36°17' W 007°28'96 3.4
2016-Jul-22 16:33N 35°58' W 005°32'1313.4
2016-Jul-22 15:34N 36°02' W 005°16'22320.3
2016-Jul-22 04:33N 36°36' W 000°43'2323.4
2016-Jul-22 03:32N 36°39' W 000°14'2323.4
2016-Jul-22 02:33N 36°42' E 000°15'2423.9
2016-Jul-22 01:33N 36°45' E 000°44'2323.4
2016-Jul-22 00:33N 36°48' E 001°13'2423.6
2016-Jul-21 23:33N 36°51' E 001°42'2423.8
2016-Jul-21 22:33N 36°55' E 002°12'2423.9
2016-Jul-21 21:33N 36°58' E 002°42'2423.8
2016-Jul-21 20:33N 37°01' E 003°11'2424.1
2016-Jul-21 19:33N 37°05' E 003°41'2524.9
2016-Jul-21 18:33N 37°09' E 004°12'2524.5
2016-Jul-21 17:33N 37°12' E 004°42'2424.1
2016-Jul-21 16:33N 37°14' E 005°12'2424.3
2016-Jul-21 15:33N 37°17' E 005°43'2524.2
2016-Jul-21 14:31N 37°21' E 006°14'11422.9
2016-Jul-21 09:33N 37°36' E 008°36'1616.3
2016-Jul-21 08:33N 37°37' E 008°56'1615.5
2016-Jul-21 07:33N 37°39' E 009°16'1515.3
2016-Jul-21 06:33N 37°37' E 009°35'1515.5
2016-Jul-21 05:33N 37°38' E 009°55'1515.5
2016-Jul-21 04:34N 37°38' E 010°14'1615.7
2016-Jul-21 03:33N 37°34' E 010°33'1615.7
2016-Jul-21 02:34N 37°31' E 010°53'1615.7
2016-Jul-21 01:33N 37°26' E 011°12'1616.2
2016-Jul-21 00:34N 37°19' E 011°30'1616.1
2016-Jul-20 23:34N 37°12' E 011°48'1615.8
2016-Jul-20 22:33N 37°05' E 012°06'1615.6
2016-Jul-20 21:34N 36°58' E 012°23'1515.4
2016-Jul-20 20:33N 36°51' E 012°41'1616.4
2016-Jul-20 19:34N 36°45' E 012°60'1717.0
2016-Jul-20 18:34N 36°39' E 013°20'1817.1
2016-Jul-20 17:31N 36°34' E 013°41'1717.6
2016-Jul-20 16:33N 36°29' E 014°01'1717.3
2016-Jul-20 15:34N 36°24' E 014°21'1817.7
2016-Jul-20 14:34N 36°19' E 014°42'  
2016-Jul-18 00:12N 29°49' E 032°34'31 6.1
2016-Jul-17 19:12N 29°19' E 032°42'  
Track history (hours):
 
Tides and Currents Weather Stations Pressure Air Temp Water Temp Dewpoint Dewpoint Depression Visibility Wind Speed Wind Dir Waves Ship Positions

Evelyn Maersk

Last reported at 2016-Jul-26 19:27 UTC. Time now 2016-Jul-26 19:54 UTC.
Position N 50°54' W 001°27'.

Length 398 m; draft 14.3 m.

Type: Ship (hazmat cat A). MMSI: 220496000.

Date/timePositionNaut miles runAvg speedWind from/ knotsBaromVisibWave heightAir tempDewpointWater temp
2016-Jul-26 19:27N 50°54' W 001°27'0 0.0
2016-Jul-26 18:33N 50°54' W 001°27'1 1.5
2016-Jul-26 17:33N 50°54' W 001°25'7 7.3
2016-Jul-26 16:34N 50°47' W 001°19'1211.6
2016-Jul-26 15:33N 50°43' W 001°02'9 8.9
2016-Jul-26 14:33N 50°35' W 000°59'7 7.1
2016-Jul-26 13:34N 50°30' W 001°06'11 8.2
2016-Jul-26 12:12N 50°22' W 001°19'31 8.4
2016-Jul-26 08:31N 50°01' W 001°54'7 6.3
2016-Jul-26 07:27N 49°59' W 002°04'6 5.4
2016-Jul-26 06:19N 49°57' W 002°14'15 7.3
2016-Jul-26 04:16N 49°53' W 002°36'7 9.6
2016-Jul-26 03:33N 49°51' W 002°46'1110.4
2016-Jul-26 02:31N 49°46' W 003°01'1010.8
2016-Jul-26 01:33N 49°41' W 003°14'1111.0
2016-Jul-26 00:32N 49°36' W 003°30'2411.5
2016-Jul-25 22:24N 49°24' W 004°03'1011.6
2016-Jul-25 21:31N 49°18' W 004°15'1212.2
2016-Jul-25 20:30N 49°11' W 004°32'1212.3
2016-Jul-25 19:33N 49°05' W 004°47'1312.1
2016-Jul-25 18:30N 48°59' W 005°04'1111.9
2016-Jul-25 17:33N 48°53' W 005°19'1111.3
2016-Jul-25 16:33N 48°47' W 005°33'1110.5
2016-Jul-25 15:32N 48°39' W 005°44'59718.7
2016-Jul-24 07:33N 39°08' W 009°49'2120.8
2016-Jul-24 06:33N 38°48' W 009°50'2121.2
2016-Jul-24 05:33N 38°27' W 009°45'2121.3
2016-Jul-24 04:33N 38°06' W 009°40'2221.7
2016-Jul-24 03:33N 37°44' W 009°33'2121.4
2016-Jul-24 02:33N 37°24' W 009°28'2121.0
2016-Jul-24 01:33N 37°03' W 009°22'2121.0
2016-Jul-24 00:33N 36°44' W 009°11'2221.6
2016-Jul-23 23:33N 36°37' W 008°46'2222.1
2016-Jul-23 22:33N 36°31' W 008°19'2222.0
2016-Jul-23 21:33N 36°24' W 007°53'2121.5
2016-Jul-23 20:33N 36°17' W 007°28'96 3.4
2016-Jul-22 16:33N 35°58' W 005°32'1313.4
2016-Jul-22 15:34N 36°02' W 005°16'22320.3
2016-Jul-22 04:33N 36°36' W 000°43'2323.4
2016-Jul-22 03:32N 36°39' W 000°14'2323.4
2016-Jul-22 02:33N 36°42' E 000°15'2423.9
2016-Jul-22 01:33N 36°45' E 000°44'2323.4
2016-Jul-22 00:33N 36°48' E 001°13'2423.6
2016-Jul-21 23:33N 36°51' E 001°42'2423.8
2016-Jul-21 22:33N 36°55' E 002°12'2423.9
2016-Jul-21 21:33N 36°58' E 002°42'2423.8
2016-Jul-21 20:33N 37°01' E 003°11'2424.1
2016-Jul-21 19:33N 37°05' E 003°41'2524.9
2016-Jul-21 18:33N 37°09' E 004°12'2524.5
2016-Jul-21 17:33N 37°12' E 004°42'2424.1
2016-Jul-21 16:33N 37°14' E 005°12'2424.3
2016-Jul-21 15:33N 37°17' E 005°43'2524.2
2016-Jul-21 14:31N 37°21' E 006°14'11422.9
2016-Jul-21 09:33N 37°36' E 008°36'1616.3
2016-Jul-21 08:33N 37°37' E 008°56'1615.5
2016-Jul-21 07:33N 37°39' E 009°16'1515.3
2016-Jul-21 06:33N 37°37' E 009°35'1515.5
2016-Jul-21 05:33N 37°38' E 009°55'1515.5
2016-Jul-21 04:34N 37°38' E 010°14'1615.7
2016-Jul-21 03:33N 37°34' E 010°33'1615.7
2016-Jul-21 02:34N 37°31' E 010°53'1615.7
2016-Jul-21 01:33N 37°26' E 011°12'1616.2
2016-Jul-21 00:34N 37°19' E 011°30'1616.1
2016-Jul-20 23:34N 37°12' E 011°48'1615.8
2016-Jul-20 22:33N 37°05' E 012°06'1615.6
2016-Jul-20 21:34N 36°58' E 012°23'1515.4
2016-Jul-20 20:33N 36°51' E 012°41'1616.4
2016-Jul-20 19:34N 36°45' E 012°60'1717.0
2016-Jul-20 18:34N 36°39' E 013°20'1817.1
2016-Jul-20 17:31N 36°34' E 013°41'1717.6
2016-Jul-20 16:33N 36°29' E 014°01'1717.3
2016-Jul-20 15:34N 36°24' E 014°21'1817.7
2016-Jul-20 14:34N 36°19' E 014°42'  
2016-Jul-18 00:12N 29°49' E 032°34'31 6.1
2016-Jul-17 19:12N 29°19' E 032°42'  

Dump ship's entire track history